Rock Hill, SC

8:14 PM EDT on June 03, 2015 (GMT -0400)
Rock Hill-York County-Bryant | | Change Station
CLOSE
Current Station
Airport
Location: Rock Hill,
Elevation: 666 ft
Nearby Weather Stations

Elev 666 ft 34.99 °N, 81.06 °W | Updated 20 minutes ago

Overcast
Overcast
67 °F
Feels Like 67 °F
N
6
Wind Variable Wind from NE

Today
High -- | Low -- °F
--% Chance of Precip.
Yesterday
High -- | Low -- °F
Precip. -- in
6:11 AM 8:33 PM
Full, 98% visible
Pressure 30.01 in
Visibility 7.0 miles
Clouds Overcast 1600 ft
Dew Point 63 °F
Humidity 87%
Rainfall 0.00 in
Snow Depth Not available.
UV 0 out of 12
Pollen 3.40 out of 12
Air Quality Not available.
Flu Activity Local Activity
METAR KUZA 032354Z AUTO 04005KT 7SM OVC016 19/17 A3004 RMK AO2 SLP163 60000 T01940172 10211 20189 53004

More Conditions Fewer Conditions

Pressure 30.01 in
Visibility 7.0 miles
Clouds Overcast 1600 ft
Dew Point 63 °F
Humidity 87%
Rainfall 0.00 in
Snow Depth Not available.
UV 0 out of 12
Pollen 3.40 out of 12
Air Quality Not available.
Flu Activity Local Activity
METAR KUZA 032354Z AUTO 04005KT 7SM OVC016 19/17 A3004 RMK AO2 SLP163 60000 T01940172 10211 20189 53004

More Conditions Fewer Conditions

10-Day Weather Forecast

×

Almanac

Astronomy

Jun. 03, 2015 Rise Set
Actual Time
Civil Twilight
Nautical Twilight
Astronomical Twilight
Moon
Length of Visible Light
Length of Day
Tomorrow will be .
, % of the Moon is Illuminated

Today's Extremes

State Highs State Lows

Community

WunderPhotos

Upload Photos

1,826,310 photos uploaded!

WunderBlogs® & News

Nearby

Air Quality

  Air Quality AQ Index Pollutant
Not available.

Snow Depth

Station Depth Elevation

Earthquake Activity

City Distance Mag. Time & Date
Minimum magnitude displayed is 2.5.

Coastal Water Temperatures

Place Temperature

Stations

Nearby Weather Stations

Station Location Temp. Windchill Dew Point Humidity Wind Precip. Elev Updated Type